createdAt,value
2022-09-23T00:01:26.919Z,13.70
2022-09-23T00:03:54.779Z,13.70
2022-09-23T00:06:23.893Z,13.70
2022-09-23T00:08:52.391Z,13.80
2022-09-23T00:11:29.781Z,13.70
2022-09-23T00:13:59.851Z,13.80
2022-09-23T00:16:34.278Z,13.80
2022-09-23T00:19:03.176Z,13.80
2022-09-23T00:23:58.979Z,10.50
2022-09-23T00:26:27.622Z,13.80
2022-09-23T00:28:55.166Z,13.80
2022-09-23T00:31:26.253Z,13.80
2022-09-23T00:33:59.441Z,13.80
2022-09-23T00:36:30.556Z,13.80
2022-09-23T00:38:58.753Z,13.80
2022-09-23T00:41:27.465Z,13.90
2022-09-23T00:43:58.536Z,13.90
2022-09-23T00:46:44.446Z,13.90
2022-09-23T00:49:29.500Z,13.90
2022-09-23T00:52:07.364Z,13.90
2022-09-23T00:54:35.495Z,13.80
2022-09-23T00:57:05.410Z,13.90
2022-09-23T01:02:03.641Z,13.80
2022-09-23T01:04:32.188Z,13.70
2022-09-23T01:09:28.059Z,13.70
2022-09-23T01:12:07.739Z,13.70
2022-09-23T01:15:00.508Z,13.60
2022-09-23T01:17:50.510Z,13.50
2022-09-23T01:20:55.934Z,13.40
2022-09-23T01:24:02.514Z,13.40
2022-09-23T01:27:04.078Z,13.30
2022-09-23T01:29:41.202Z,13.20
2022-09-23T01:32:35.608Z,13.20
2022-09-23T01:35:21.339Z,13.20
2022-09-23T01:38:03.708Z,13.20
2022-09-23T01:40:40.762Z,12.70
2022-09-23T01:43:11.859Z,13.10
2022-09-23T01:45:44.565Z,13.10
2022-09-23T01:50:58.461Z,13.10
2022-09-23T01:53:51.371Z,13.10
2022-09-23T01:56:30.506Z,13.10
2022-09-23T01:59:31.205Z,13.10
2022-09-23T02:02:19.412Z,13.00
2022-09-23T02:05:03.834Z,13.00
2022-09-23T02:07:41.789Z,13.10
2022-09-23T02:10:24.492Z,13.00
2022-09-23T02:12:57.347Z,13.10
2022-09-23T02:15:31.846Z,13.10
2022-09-23T02:18:17.239Z,13.20
2022-09-23T02:20:47.341Z,13.20
2022-09-23T02:23:29.977Z,13.20
2022-09-23T02:26:08.899Z,13.20
2022-09-23T02:28:48.614Z,13.20
2022-09-23T02:31:34.824Z,13.20
2022-09-23T02:34:05.054Z,13.20
2022-09-23T02:36:47.109Z,13.30
2022-09-23T02:41:50.317Z,13.30
2022-09-23T02:44:20.319Z,13.30
2022-09-23T02:49:29.744Z,13.30
2022-09-23T02:52:00.431Z,13.30
2022-09-23T02:54:29.258Z,13.30
2022-09-23T02:59:25.224Z,13.20
2022-09-23T03:04:31.684Z,13.20
2022-09-23T03:07:08.279Z,13.10
2022-09-23T03:09:38.825Z,13.10
2022-09-23T03:12:12.436Z,13.20
2022-09-23T03:14:53.691Z,13.10
2022-09-23T03:17:54.633Z,13.10
2022-09-23T03:22:56.903Z,13.10
2022-09-23T03:25:27.160Z,13.10
2022-09-23T03:28:01.618Z,13.10
2022-09-23T03:30:31.522Z,13.10
2022-09-23T03:33:01.077Z,13.10
2022-09-23T03:35:31.542Z,13.10
2022-09-23T03:38:17.769Z,13.10
2022-09-23T03:40:51.134Z,13.10
2022-09-23T03:45:47.625Z,13.10
2022-09-23T03:48:15.941Z,13.10
2022-09-23T03:50:43.484Z,13.10
2022-09-23T03:55:41.691Z,13.00
2022-09-23T03:58:09.289Z,13.00
2022-09-23T04:03:09.535Z,12.90
2022-09-23T04:08:07.215Z,13.00
2022-09-23T04:15:30.940Z,12.90
2022-09-23T04:17:59.729Z,12.80
2022-09-23T04:20:28.995Z,12.90
2022-09-23T04:22:57.025Z,12.80
2022-09-23T04:25:24.790Z,12.80
2022-09-23T04:35:16.878Z,12.70
2022-09-23T04:37:47.414Z,12.70
2022-09-23T04:40:15.228Z,12.70
2022-09-23T04:47:38.885Z,12.70
2022-09-23T04:55:03.024Z,12.70
2022-09-23T05:04:56.319Z,12.60
2022-09-23T05:09:52.104Z,12.50
2022-09-23T05:24:39.438Z,12.40
2022-09-23T05:27:08.044Z,12.30
2022-09-23T05:29:36.178Z,12.30
2022-09-23T05:32:03.735Z,12.40
2022-09-23T05:36:59.955Z,12.30
2022-09-23T05:39:27.583Z,12.20
2022-09-23T05:41:55.683Z,12.20
2022-09-23T05:44:23.180Z,12.20
2022-09-23T05:46:50.758Z,12.10
2022-09-23T05:49:18.429Z,12.10
2022-09-23T05:54:14.321Z,12.00
2022-09-23T06:01:38.665Z,12.00
2022-09-23T06:04:08.240Z,12.00
2022-09-23T06:06:41.689Z,11.90
2022-09-23T06:09:13.773Z,11.80
2022-09-23T06:11:42.781Z,11.80
2022-09-23T06:14:13.271Z,11.80
2022-09-23T06:19:09.950Z,10.70
2022-09-23T06:21:40.452Z,11.70
2022-09-23T06:24:09.381Z,11.70
2022-09-23T06:26:38.306Z,11.80
2022-09-23T06:29:12.409Z,11.80
2022-09-23T06:31:41.599Z,11.70
2022-09-23T06:34:14.591Z,11.70
2022-09-23T06:36:45.501Z,11.60
2022-09-23T06:39:15.008Z,11.60
2022-09-23T06:44:15.159Z,11.50
2022-09-23T06:46:44.538Z,11.50
2022-09-23T06:59:10.928Z,11.20
2022-09-23T07:04:07.944Z,11.10
2022-09-23T07:11:33.059Z,11.10
2022-09-23T07:14:00.636Z,11.10
2022-09-23T07:18:56.149Z,11.10
2022-09-23T07:26:21.182Z,11.10
2022-09-23T07:28:54.531Z,11.10
2022-09-23T07:34:08.527Z,11.30
2022-09-23T07:39:12.272Z,11.40
2022-09-23T07:41:41.847Z,11.40
2022-09-23T07:44:11.313Z,11.60
2022-09-23T07:46:40.123Z,11.60
2022-09-23T07:54:10.068Z,11.80
2022-09-23T07:56:38.905Z,11.90
2022-09-23T08:01:39.922Z,12.00
2022-09-23T08:04:17.838Z,12.00
2022-09-23T08:06:51.246Z,12.00
2022-09-23T08:09:21.290Z,12.10
2022-09-23T08:11:50.919Z,12.20
2022-09-23T08:14:19.295Z,12.30
2022-09-23T08:19:17.899Z,12.30
2022-09-23T08:21:52.179Z,12.40
2022-09-23T08:24:22.110Z,12.40
2022-09-23T08:26:51.442Z,12.50
2022-09-23T08:29:21.590Z,12.60
2022-09-23T08:31:50.207Z,12.70
2022-09-23T08:34:19.999Z,12.80
2022-09-23T08:36:48.287Z,12.90
2022-09-23T08:39:17.989Z,12.90
2022-09-23T08:42:13.403Z,12.90
2022-09-23T08:44:50.804Z,13.00
2022-09-23T08:47:24.945Z,13.00
2022-09-23T08:50:07.557Z,9.60
2022-09-23T08:52:43.725Z,13.40
2022-09-23T08:55:15.472Z,13.40
2022-09-23T08:58:23.274Z,13.40
2022-09-23T09:00:55.074Z,13.50
2022-09-23T09:03:36.758Z,13.70
2022-09-23T09:08:37.124Z,13.80
2022-09-23T09:11:08.144Z,13.80
2022-09-23T09:13:52.087Z,13.80
2022-09-23T09:16:59.612Z,13.80
2022-09-23T09:19:55.764Z,13.90
2022-09-23T09:22:48.694Z,13.90
2022-09-23T09:25:40.067Z,13.90
2022-09-23T09:28:45.052Z,14.00
2022-09-23T09:33:58.841Z,14.00
2022-09-23T09:36:37.159Z,14.10
2022-09-23T09:39:05.709Z,14.20
2022-09-23T09:44:08.938Z,14.40
2022-09-23T09:46:45.262Z,14.40
2022-09-23T09:49:24.927Z,14.40
2022-09-23T09:52:13.031Z,14.50
2022-09-23T09:54:40.743Z,14.50
2022-09-23T09:57:15.966Z,14.50
2022-09-23T09:59:44.331Z,14.70
2022-09-23T10:02:34.124Z,14.70
2022-09-23T10:05:08.865Z,14.80
2022-09-23T10:10:32.304Z,15.20
2022-09-23T10:13:17.132Z,15.20
2022-09-23T10:15:45.763Z,15.30
2022-09-23T10:18:25.174Z,15.30
2022-09-23T10:20:59.577Z,15.40
2022-09-23T10:23:29.271Z,15.40
2022-09-23T10:26:03.681Z,15.40
2022-09-23T10:28:48.960Z,15.60
2022-09-23T10:31:34.322Z,15.70
2022-09-23T10:34:25.727Z,15.60
2022-09-23T10:37:06.131Z,15.60
2022-09-23T10:39:55.458Z,15.70
2022-09-23T10:43:08.245Z,15.80
2022-09-23T10:45:59.328Z,15.90
2022-09-23T10:49:02.348Z,15.90
2022-09-23T10:51:46.903Z,15.90
2022-09-23T10:54:32.115Z,15.80
2022-09-23T10:57:29.422Z,15.90
2022-09-23T11:00:08.600Z,16.00
2022-09-23T11:02:54.341Z,16.20
2022-09-23T11:06:01.395Z,16.30
2022-09-23T11:08:41.162Z,16.30
2022-09-23T11:11:54.936Z,16.30
2022-09-23T11:14:51.725Z,16.30
2022-09-23T11:17:48.749Z,16.50
2022-09-23T11:20:41.429Z,16.50
2022-09-23T11:23:46.982Z,16.40
2022-09-23T11:26:47.088Z,16.30
2022-09-23T11:29:17.690Z,16.50
2022-09-23T11:34:54.955Z,16.70
2022-09-23T11:37:53.025Z,16.70
2022-09-23T11:40:35.205Z,17.00
2022-09-23T11:43:18.976Z,17.20
2022-09-23T11:46:31.502Z,17.00
2022-09-23T11:49:09.690Z,17.10
2022-09-23T11:52:10.613Z,17.10
2022-09-23T11:54:54.736Z,17.20
2022-09-23T11:57:51.943Z,17.30
2022-09-23T12:00:22.386Z,17.20
2022-09-23T12:03:01.741Z,17.20
2022-09-23T12:05:40.529Z,17.00
2022-09-23T12:08:26.356Z,16.80
2022-09-23T12:11:16.598Z,16.60
2022-09-23T12:13:59.111Z,16.40
2022-09-23T12:16:29.796Z,16.50
2022-09-23T12:19:21.959Z,16.60
2022-09-23T12:21:59.460Z,16.90
2022-09-23T12:24:39.332Z,17.30
2022-09-23T12:27:11.975Z,17.50
2022-09-23T12:29:41.555Z,17.40
2022-09-23T12:32:18.575Z,17.20
2022-09-23T12:34:50.453Z,19.10
2022-09-23T12:37:38.335Z,16.80
2022-09-23T12:40:16.713Z,16.80
2022-09-23T12:42:46.498Z,17.10
2022-09-23T12:45:32.827Z,17.30
2022-09-23T12:48:03.420Z,17.70
2022-09-23T12:50:56.090Z,18.00
2022-09-23T12:53:36.122Z,18.00
2022-09-23T12:56:23.571Z,18.10
2022-09-23T12:58:51.162Z,18.20
2022-09-23T13:01:23.320Z,18.30
2022-09-23T13:04:15.197Z,18.30
2022-09-23T13:06:58.846Z,18.30
2022-09-23T13:09:30.244Z,18.10
2022-09-23T13:12:04.366Z,18.00
2022-09-23T13:14:33.764Z,17.90
2022-09-23T13:17:01.762Z,18.00
2022-09-23T13:19:31.690Z,18.10
2022-09-23T13:22:07.707Z,18.30
2022-09-23T13:24:47.662Z,18.20
2022-09-23T13:27:20.269Z,18.00
2022-09-23T13:30:05.489Z,17.90
2022-09-23T13:32:37.701Z,17.80
2022-09-23T13:35:18.770Z,17.90
2022-09-23T13:37:47.933Z,18.10
2022-09-23T13:40:27.179Z,18.20
2022-09-23T13:42:59.551Z,18.40
2022-09-23T13:45:28.925Z,18.80
2022-09-23T13:48:06.150Z,19.20
2022-09-23T13:50:38.548Z,19.30
2022-09-23T13:53:10.609Z,19.00
2022-09-23T13:55:40.202Z,19.30
2022-09-23T13:58:20.972Z,19.30
2022-09-23T14:00:51.705Z,19.30
2022-09-23T14:03:26.510Z,19.10
2022-09-23T14:06:04.506Z,18.70
2022-09-23T14:08:32.850Z,18.30
2022-09-23T14:11:01.763Z,17.80
2022-09-23T14:13:32.314Z,17.60
2022-09-23T14:16:03.294Z,17.60
2022-09-23T14:18:38.959Z,18.00
2022-09-23T14:21:25.875Z,18.50
2022-09-23T14:23:53.524Z,19.70
2022-09-23T14:26:24.512Z,20.40
2022-09-23T14:28:52.887Z,20.80
2022-09-23T14:31:20.764Z,20.40
2022-09-23T14:33:48.395Z,20.40
2022-09-23T14:36:37.355Z,19.30
2022-09-23T14:39:16.695Z,18.90
2022-09-23T14:41:45.596Z,19.30
2022-09-23T14:44:26.694Z,19.60
2022-09-23T14:46:58.418Z,20.30
2022-09-23T14:49:27.119Z,20.80
2022-09-23T14:52:00.890Z,20.90
2022-09-23T14:54:40.790Z,21.20
2022-09-23T14:57:22.747Z,21.30
2022-09-23T14:59:56.061Z,21.50
2022-09-23T15:02:39.410Z,21.40
2022-09-23T15:05:21.883Z,20.50
2022-09-23T15:07:58.130Z,20.20
2022-09-23T15:10:34.201Z,20.00
2022-09-23T15:13:15.511Z,19.50
2022-09-23T15:15:44.297Z,19.10
2022-09-23T15:18:18.831Z,18.70
2022-09-23T15:21:10.228Z,18.40
2022-09-23T15:23:58.660Z,18.00
2022-09-23T15:26:41.141Z,18.40
2022-09-23T15:29:10.083Z,19.00
2022-09-23T15:31:37.975Z,19.30
2022-09-23T15:34:06.132Z,19.90
2022-09-23T15:36:34.199Z,19.90
2022-09-23T15:39:03.581Z,20.50
2022-09-23T15:41:33.754Z,20.70
2022-09-23T15:44:29.655Z,21.10
2022-09-23T15:47:01.228Z,21.30
2022-09-23T15:49:34.470Z,21.40
2022-09-23T15:52:04.608Z,20.80
2022-09-23T15:54:33.843Z,19.90
2022-09-23T15:57:02.282Z,19.20
2022-09-23T15:59:33.698Z,18.50
2022-09-23T16:02:06.779Z,18.00
2022-09-23T16:04:36.072Z,17.60
2022-09-23T16:07:05.693Z,17.30
2022-09-23T16:09:33.410Z,17.10
2022-09-23T16:12:03.273Z,16.90
2022-09-23T16:14:31.256Z,16.70
2022-09-23T16:16:59.113Z,16.70
2022-09-23T16:21:54.648Z,16.40
2022-09-23T16:24:27.378Z,16.30
2022-09-23T16:27:00.122Z,16.40
2022-09-23T16:31:56.049Z,17.20
2022-09-23T16:34:23.794Z,17.40
2022-09-23T16:36:52.184Z,17.40
2022-09-23T16:39:20.813Z,17.70
2022-09-23T16:41:48.767Z,18.00
2022-09-23T16:44:16.680Z,18.10
2022-09-23T16:46:44.292Z,18.00
2022-09-23T16:51:39.967Z,17.80
2022-09-23T16:54:13.297Z,17.70
2022-09-23T16:56:46.512Z,17.50
2022-09-23T16:59:15.642Z,17.30
2022-09-23T17:02:02.235Z,17.20
2022-09-23T17:06:58.345Z,16.90
2022-09-23T17:09:28.525Z,16.70
2022-09-23T17:12:26.126Z,16.60
2022-09-23T17:14:53.950Z,16.50
2022-09-23T17:19:50.110Z,16.90
2022-09-23T17:22:17.682Z,16.90
2022-09-23T17:24:45.433Z,16.90
2022-09-23T17:27:13.439Z,16.90
2022-09-23T17:29:41.437Z,17.00
2022-09-23T17:32:09.800Z,17.10
2022-09-23T17:34:37.565Z,17.20
2022-09-23T17:37:05.564Z,17.30
2022-09-23T17:42:03.906Z,17.60
2022-09-23T17:47:00.847Z,16.70
2022-09-23T17:49:29.121Z,16.30
2022-09-23T17:54:25.206Z,15.60
2022-09-23T17:56:53.035Z,15.40
2022-09-23T17:59:20.777Z,15.00
2022-09-23T18:01:48.949Z,15.00
2022-09-23T18:04:16.502Z,14.90
2022-09-23T18:06:44.089Z,14.70
2022-09-23T18:09:12.607Z,14.60
2022-09-23T18:11:43.687Z,14.50
2022-09-23T18:14:22.954Z,14.50
2022-09-23T18:16:53.713Z,14.40
2022-09-23T18:19:23.514Z,14.30
2022-09-23T18:21:54.698Z,14.10
2022-09-23T18:24:33.159Z,14.00
2022-09-23T18:27:01.623Z,13.90
2022-09-23T18:29:29.216Z,13.80
2022-09-23T18:36:56.267Z,13.70
2022-09-23T18:39:24.066Z,13.70
2022-09-23T18:41:51.880Z,13.60
2022-09-23T18:44:20.069Z,13.60
2022-09-23T18:46:47.656Z,13.60
2022-09-23T18:52:02.861Z,13.50
2022-09-23T18:56:59.544Z,13.40
2022-09-23T18:59:29.893Z,13.30
2022-09-23T19:01:57.982Z,13.30
2022-09-23T19:04:27.390Z,13.30
2022-09-23T19:09:25.067Z,13.20
2022-09-23T19:11:53.750Z,13.00
2022-09-23T19:16:50.726Z,13.00
2022-09-23T19:19:18.369Z,12.90
2022-09-23T19:21:46.453Z,12.90
2022-09-23T19:24:20.628Z,12.90
2022-09-23T19:26:48.867Z,12.80
2022-09-23T19:29:19.857Z,12.70
2022-09-23T19:31:48.808Z,12.70
2022-09-23T19:34:23.819Z,12.60
2022-09-23T19:36:53.022Z,12.60
2022-09-23T19:39:23.063Z,15.10
2022-09-23T19:41:52.752Z,12.50
2022-09-23T19:46:55.286Z,12.50
2022-09-23T19:49:25.266Z,12.40
2022-09-23T19:51:56.086Z,12.40
2022-09-23T19:56:54.858Z,12.30
2022-09-23T19:59:22.632Z,12.30
2022-09-23T20:04:18.421Z,12.20
2022-09-23T20:06:46.434Z,12.20
2022-09-23T20:09:14.592Z,12.10
2022-09-23T20:11:45.326Z,12.10
2022-09-23T20:14:13.209Z,12.10
2022-09-23T20:16:41.384Z,12.10
2022-09-23T20:19:10.011Z,12.10
2022-09-23T20:21:37.702Z,12.20
2022-09-23T20:24:07.121Z,12.10
2022-09-23T20:29:21.741Z,12.00
2022-09-23T20:31:49.837Z,12.00
2022-09-23T20:34:18.623Z,12.00
2022-09-23T20:36:46.308Z,11.90
2022-09-23T20:39:14.106Z,11.90
2022-09-23T20:44:14.280Z,11.90
2022-09-23T20:46:48.633Z,11.80
2022-09-23T20:49:17.865Z,11.70
2022-09-23T20:51:48.091Z,11.70
2022-09-23T20:56:47.888Z,11.60
2022-09-23T21:01:47.625Z,11.50
2022-09-23T21:04:15.883Z,11.40
2022-09-23T21:06:43.740Z,11.40
2022-09-23T21:09:11.507Z,11.30
2022-09-23T21:11:39.462Z,11.40
2022-09-23T21:14:07.327Z,11.40
2022-09-23T21:16:36.210Z,11.40
2022-09-23T21:24:23.825Z,11.30
2022-09-23T21:34:16.742Z,11.00
2022-09-23T21:36:46.283Z,11.00
2022-09-23T21:39:14.632Z,10.90
2022-09-23T21:41:42.703Z,10.80
2022-09-23T21:44:10.561Z,10.70
2022-09-23T21:46:38.517Z,10.60
2022-09-23T21:49:06.469Z,10.60
2022-09-23T21:51:39.222Z,10.50
2022-09-23T21:54:15.887Z,10.40
2022-09-23T21:56:44.857Z,10.40
2022-09-23T21:59:14.172Z,10.40
2022-09-23T22:01:45.068Z,10.40
2022-09-23T22:04:19.594Z,10.40
2022-09-23T22:06:49.087Z,10.50
2022-09-23T22:09:19.766Z,10.50
2022-09-23T22:14:37.456Z,10.60
2022-09-23T22:17:06.899Z,10.60
2022-09-23T22:19:40.212Z,10.60
2022-09-23T22:22:15.449Z,10.60
2022-09-23T22:24:44.591Z,10.50
2022-09-23T22:27:16.325Z,10.50
2022-09-23T22:30:02.356Z,10.50
2022-09-23T22:35:13.593Z,10.20
2022-09-23T22:40:11.060Z,10.00
2022-09-23T22:45:10.337Z,9.70
2022-09-23T22:47:39.667Z,9.50
2022-09-23T22:50:09.203Z,9.30
2022-09-23T22:52:38.001Z,9.20
2022-09-23T22:55:08.291Z,9.10
2022-09-23T22:57:36.787Z,9.10
2022-09-23T23:00:06.259Z,8.90
2022-09-23T23:05:02.333Z,8.80
2022-09-23T23:07:29.770Z,8.70
2022-09-23T23:12:26.961Z,8.50
2022-09-23T23:14:54.933Z,8.40
2022-09-23T23:17:22.634Z,8.40
2022-09-23T23:24:46.556Z,8.20
2022-09-23T23:29:42.403Z,8.00
2022-09-23T23:34:38.483Z,7.80
2022-09-23T23:37:07.227Z,7.70
2022-09-23T23:39:35.122Z,7.70
2022-09-23T23:42:04.897Z,7.70
2022-09-23T23:44:34.269Z,7.70
2022-09-23T23:47:02.052Z,7.70
2022-09-23T23:49:29.865Z,7.70
2022-09-23T23:51:57.938Z,7.70
2022-09-23T23:54:25.694Z,7.60
2022-09-23T23:56:53.295Z,7.60
2022-09-23T23:59:21.410Z,7.60
